West Pennsboro, Pennsylvania
Current Conditions -  °F | °C
As of 12:56 AM on Sunday 26 Oct 2014 (Local Time) from KCXY Reporting Station
Overcast Overcast  
Wind Chill: 18°   Ceiling: 6000
Heat Index: 18°   Visibility: 10mi
Dew Point:   Wind: 7mph
Humidity: 58%   Direction: 270°W
Pressure: 29.63"   Gusts: NA
Location:  40.183°N, 77.4166°W
Report Text: KCXY 260456Z AUTO 27006KT 10SM OVC060 18/09 A2963 RMK AO2 SLP033 T01780094 402110061
Loading
Personal Weather Stations






























Interactive Weather Map
Tropical Storm Tracking
New forecast layout! Learn more

10-Day Weather Forecast

Advertisements
Track Severe Weather on mobile